Dirj, Libya
Current Conditions -  °F | °C
As of 9:00 PM on Friday 24 Oct 2014 (Local Time) from DTTR Reporting Station
Clear Clear  
Wind Chill: 73°   Ceiling: Unl
Heat Index: 73°   Visibility: 6mi
Dew Point: 41°   Wind: 2mph
Humidity: 31%   Direction: 300°WNW
Pressure: 30.03"   Gusts: NA
Location:  30.17°N, 10.46°E
Report Text: DTTR 241800Z 30002KT CAVOK 23/05 Q1017
Loading
Personal Weather Stations






























Interactive Weather Map
Tropical Storm Tracking
New forecast layout! Learn more

10-Day Weather Forecast

Advertisements
Track Severe Weather on mobile